sensor_id;sensor_type;location;lat;lon;timestamp;P1;durP1;ratioP1;P2;durP2;ratioP2
38865;SDS011;62686;48.984;8.394;2022-11-23T00:03:43;4.17;;;1.60;;
38865;SDS011;62686;48.984;8.394;2022-11-23T00:06:12;5.17;;;1.60;;
38865;SDS011;62686;48.984;8.394;2022-11-23T00:08:42;8.13;;;1.53;;
38865;SDS011;62686;48.984;8.394;2022-11-23T00:11:11;3.90;;;1.63;;
38865;SDS011;62686;48.984;8.394;2022-11-23T00:13:39;5.60;;;1.57;;
38865;SDS011;62686;48.984;8.394;2022-11-23T00:16:09;3.77;;;1.70;;
38865;SDS011;62686;48.984;8.394;2022-11-23T00:18:39;6.13;;;1.57;;
38865;SDS011;62686;48.984;8.394;2022-11-23T00:21:08;7.57;;;1.80;;
38865;SDS011;62686;48.984;8.394;2022-11-23T00:23:37;5.07;;;1.60;;
38865;SDS011;62686;48.984;8.394;2022-11-23T00:26:06;8.90;;;2.10;;
38865;SDS011;62686;48.984;8.394;2022-11-23T00:28:35;5.73;;;1.80;;
38865;SDS011;62686;48.984;8.394;2022-11-23T00:31:05;3.23;;;1.50;;
38865;SDS011;62686;48.984;8.394;2022-11-23T00:33:34;5.00;;;1.60;;
38865;SDS011;62686;48.984;8.394;2022-11-23T00:36:03;5.77;;;1.73;;
38865;SDS011;62686;48.984;8.394;2022-11-23T00:38:32;5.47;;;1.70;;
38865;SDS011;62686;48.984;8.394;2022-11-23T00:41:01;5.07;;;1.53;;
38865;SDS011;62686;48.984;8.394;2022-11-23T00:43:32;8.20;;;1.87;;
38865;SDS011;62686;48.984;8.394;2022-11-23T00:46:01;5.47;;;1.40;;
38865;SDS011;62686;48.984;8.394;2022-11-23T00:48:34;7.47;;;1.63;;
38865;SDS011;62686;48.984;8.394;2022-11-23T00:51:03;5.63;;;1.83;;
38865;SDS011;62686;48.984;8.394;2022-11-23T00:53:32;4.47;;;1.83;;
38865;SDS011;62686;48.984;8.394;2022-11-23T00:56:01;3.83;;;1.60;;
38865;SDS011;62686;48.984;8.394;2022-11-23T00:58:30;5.30;;;1.93;;
38865;SDS011;62686;48.984;8.394;2022-11-23T01:01:00;4.03;;;1.70;;
38865;SDS011;62686;48.984;8.394;2022-11-23T01:03:30;6.03;;;1.47;;
38865;SDS011;62686;48.984;8.394;2022-11-23T01:06:03;5.70;;;1.77;;
38865;SDS011;62686;48.984;8.394;2022-11-23T01:08:32;3.20;;;1.40;;
38865;SDS011;62686;48.984;8.394;2022-11-23T01:11:00;6.10;;;1.77;;
38865;SDS011;62686;48.984;8.394;2022-11-23T01:13:31;3.47;;;1.77;;
38865;SDS011;62686;48.984;8.394;2022-11-23T01:16:00;10.33;;;1.73;;
38865;SDS011;62686;48.984;8.394;2022-11-23T01:18:30;5.83;;;1.67;;
38865;SDS011;62686;48.984;8.394;2022-11-23T01:20:59;2.47;;;1.53;;
38865;SDS011;62686;48.984;8.394;2022-11-23T01:23:28;8.00;;;2.03;;
38865;SDS011;62686;48.984;8.394;2022-11-23T01:25:56;5.77;;;2.00;;
38865;SDS011;62686;48.984;8.394;2022-11-23T01:28:30;6.90;;;2.73;;
38865;SDS011;62686;48.984;8.394;2022-11-23T01:31:03;9.50;;;3.30;;
38865;SDS011;62686;48.984;8.394;2022-11-23T01:33:32;8.23;;;2.80;;
38865;SDS011;62686;48.984;8.394;2022-11-23T01:36:05;6.43;;;2.50;;
38865;SDS011;62686;48.984;8.394;2022-11-23T01:38:35;6.73;;;2.70;;
38865;SDS011;62686;48.984;8.394;2022-11-23T01:41:04;6.23;;;2.30;;
38865;SDS011;62686;48.984;8.394;2022-11-23T01:43:33;5.23;;;2.30;;
38865;SDS011;62686;48.984;8.394;2022-11-23T01:46:02;6.93;;;2.07;;
38865;SDS011;62686;48.984;8.394;2022-11-23T01:48:32;9.60;;;2.17;;
38865;SDS011;62686;48.984;8.394;2022-11-23T01:51:04;10.67;;;2.50;;
38865;SDS011;62686;48.984;8.394;2022-11-23T01:53:35;6.67;;;1.77;;
38865;SDS011;62686;48.984;8.394;2022-11-23T01:56:05;4.60;;;1.60;;
38865;SDS011;62686;48.984;8.394;2022-11-23T01:58:38;4.00;;;1.53;;
38865;SDS011;62686;48.984;8.394;2022-11-23T02:01:09;9.63;;;1.83;;
38865;SDS011;62686;48.984;8.394;2022-11-23T02:03:37;7.90;;;1.67;;
38865;SDS011;62686;48.984;8.394;2022-11-23T02:06:07;7.03;;;1.43;;
38865;SDS011;62686;48.984;8.394;2022-11-23T02:08:40;4.77;;;1.30;;
38865;SDS011;62686;48.984;8.394;2022-11-23T02:11:08;8.60;;;2.10;;
38865;SDS011;62686;48.984;8.394;2022-11-23T02:13:40;7.00;;;2.13;;
38865;SDS011;62686;48.984;8.394;2022-11-23T02:16:10;7.20;;;1.80;;
38865;SDS011;62686;48.984;8.394;2022-11-23T02:18:40;5.27;;;1.73;;
38865;SDS011;62686;48.984;8.394;2022-11-23T02:21:11;5.87;;;1.60;;
38865;SDS011;62686;48.984;8.394;2022-11-23T02:23:41;6.23;;;1.50;;
38865;SDS011;62686;48.984;8.394;2022-11-23T02:26:18;6.63;;;1.70;;
38865;SDS011;62686;48.984;8.394;2022-11-23T02:28:51;5.33;;;1.40;;
38865;SDS011;62686;48.984;8.394;2022-11-23T02:31:22;4.30;;;1.60;;
38865;SDS011;62686;48.984;8.394;2022-11-23T02:33:50;5.57;;;1.70;;
38865;SDS011;62686;48.984;8.394;2022-11-23T02:36:26;6.83;;;1.63;;
38865;SDS011;62686;48.984;8.394;2022-11-23T02:39:05;5.47;;;1.60;;
38865;SDS011;62686;48.984;8.394;2022-11-23T02:41:38;3.37;;;1.20;;
38865;SDS011;62686;48.984;8.394;2022-11-23T02:44:09;4.10;;;1.47;;
38865;SDS011;62686;48.984;8.394;2022-11-23T02:46:47;3.90;;;1.50;;
38865;SDS011;62686;48.984;8.394;2022-11-23T02:49:15;4.17;;;1.40;;
38865;SDS011;62686;48.984;8.394;2022-11-23T02:51:43;3.80;;;1.50;;
38865;SDS011;62686;48.984;8.394;2022-11-23T02:54:12;4.07;;;1.53;;
38865;SDS011;62686;48.984;8.394;2022-11-23T02:56:41;2.30;;;1.30;;
38865;SDS011;62686;48.984;8.394;2022-11-23T02:59:09;3.70;;;1.23;;
38865;SDS011;62686;48.984;8.394;2022-11-23T03:01:37;5.10;;;1.60;;
38865;SDS011;62686;48.984;8.394;2022-11-23T03:04:06;4.67;;;1.30;;
38865;SDS011;62686;48.984;8.394;2022-11-23T03:06:34;5.67;;;1.60;;
38865;SDS011;62686;48.984;8.394;2022-11-23T03:09:03;5.27;;;1.60;;
38865;SDS011;62686;48.984;8.394;2022-11-23T03:11:31;5.93;;;1.53;;
38865;SDS011;62686;48.984;8.394;2022-11-23T03:14:01;5.60;;;1.40;;
38865;SDS011;62686;48.984;8.394;2022-11-23T03:16:29;6.33;;;1.43;;
38865;SDS011;62686;48.984;8.394;2022-11-23T03:18:59;3.73;;;1.37;;
38865;SDS011;62686;48.984;8.394;2022-11-23T03:21:28;5.90;;;1.50;;
38865;SDS011;62686;48.984;8.394;2022-11-23T03:23:56;5.67;;;1.70;;
38865;SDS011;62686;48.984;8.394;2022-11-23T03:26:25;4.80;;;1.47;;
38865;SDS011;62686;48.984;8.394;2022-11-23T03:28:53;4.70;;;1.53;;
38865;SDS011;62686;48.984;8.394;2022-11-23T03:31:22;5.57;;;1.40;;
38865;SDS011;62686;48.984;8.394;2022-11-23T03:33:50;6.73;;;1.50;;
38865;SDS011;62686;48.984;8.394;2022-11-23T03:36:19;4.07;;;1.53;;
38865;SDS011;62686;48.984;8.394;2022-11-23T03:38:47;3.47;;;1.30;;
38865;SDS011;62686;48.984;8.394;2022-11-23T03:41:15;6.40;;;1.70;;
38865;SDS011;62686;48.984;8.394;2022-11-23T03:43:43;6.70;;;1.47;;
38865;SDS011;62686;48.984;8.394;2022-11-23T03:46:11;5.47;;;1.50;;
38865;SDS011;62686;48.984;8.394;2022-11-23T03:48:42;9.73;;;1.70;;
38865;SDS011;62686;48.984;8.394;2022-11-23T03:51:10;6.27;;;1.60;;
38865;SDS011;62686;48.984;8.394;2022-11-23T03:53:38;4.33;;;1.93;;
38865;SDS011;62686;48.984;8.394;2022-11-23T03:56:07;3.63;;;1.40;;
38865;SDS011;62686;48.984;8.394;2022-11-23T03:58:35;5.90;;;1.43;;
38865;SDS011;62686;48.984;8.394;2022-11-23T04:01:03;3.93;;;1.50;;
38865;SDS011;62686;48.984;8.394;2022-11-23T04:03:32;6.97;;;1.80;;
38865;SDS011;62686;48.984;8.394;2022-11-23T04:06:01;7.97;;;1.63;;
38865;SDS011;62686;48.984;8.394;2022-11-23T04:08:30;4.77;;;1.40;;
38865;SDS011;62686;48.984;8.394;2022-11-23T04:10:58;3.20;;;1.53;;
38865;SDS011;62686;48.984;8.394;2022-11-23T04:13:26;5.37;;;1.80;;
38865;SDS011;62686;48.984;8.394;2022-11-23T04:15:56;5.43;;;1.40;;
38865;SDS011;62686;48.984;8.394;2022-11-23T04:18:24;4.67;;;1.60;;
38865;SDS011;62686;48.984;8.394;2022-11-23T04:20:52;4.07;;;1.50;;
38865;SDS011;62686;48.984;8.394;2022-11-23T04:23:22;5.90;;;1.90;;
38865;SDS011;62686;48.984;8.394;2022-11-23T04:25:50;5.17;;;1.37;;
38865;SDS011;62686;48.984;8.394;2022-11-23T04:28:18;5.30;;;1.70;;
38865;SDS011;62686;48.984;8.394;2022-11-23T04:30:48;4.80;;;1.37;;
38865;SDS011;62686;48.984;8.394;2022-11-23T04:33:16;3.23;;;1.23;;
38865;SDS011;62686;48.984;8.394;2022-11-23T04:35:45;4.53;;;1.40;;
38865;SDS011;62686;48.984;8.394;2022-11-23T04:38:13;3.67;;;1.40;;
38865;SDS011;62686;48.984;8.394;2022-11-23T04:40:42;6.03;;;1.70;;
38865;SDS011;62686;48.984;8.394;2022-11-23T04:43:15;5.30;;;1.80;;
38865;SDS011;62686;48.984;8.394;2022-11-23T04:45:43;5.80;;;1.60;;
38865;SDS011;62686;48.984;8.394;2022-11-23T04:48:12;6.47;;;1.73;;
38865;SDS011;62686;48.984;8.394;2022-11-23T04:50:40;2.80;;;1.40;;
38865;SDS011;62686;48.984;8.394;2022-11-23T04:53:10;5.87;;;1.60;;
38865;SDS011;62686;48.984;8.394;2022-11-23T04:55:39;3.53;;;1.80;;
38865;SDS011;62686;48.984;8.394;2022-11-23T04:58:11;3.27;;;1.50;;
38865;SDS011;62686;48.984;8.394;2022-11-23T05:00:43;4.47;;;1.67;;
38865;SDS011;62686;48.984;8.394;2022-11-23T05:03:11;2.93;;;1.60;;
38865;SDS011;62686;48.984;8.394;2022-11-23T05:05:39;3.60;;;1.53;;
38865;SDS011;62686;48.984;8.394;2022-11-23T05:08:08;9.90;;;1.70;;
38865;SDS011;62686;48.984;8.394;2022-11-23T05:10:36;6.27;;;1.40;;
38865;SDS011;62686;48.984;8.394;2022-11-23T05:13:04;5.63;;;1.70;;
38865;SDS011;62686;48.984;8.394;2022-11-23T05:15:34;6.40;;;1.63;;
38865;SDS011;62686;48.984;8.394;2022-11-23T05:18:02;6.60;;;1.60;;
38865;SDS011;62686;48.984;8.394;2022-11-23T05:20:32;5.57;;;1.70;;
38865;SDS011;62686;48.984;8.394;2022-11-23T05:23:00;6.07;;;1.77;;
38865;SDS011;62686;48.984;8.394;2022-11-23T05:25:28;4.70;;;1.70;;
38865;SDS011;62686;48.984;8.394;2022-11-23T05:27:57;6.67;;;1.67;;
38865;SDS011;62686;48.984;8.394;2022-11-23T05:30:34;5.80;;;1.70;;
38865;SDS011;62686;48.984;8.394;2022-11-23T05:33:02;4.53;;;1.73;;
38865;SDS011;62686;48.984;8.394;2022-11-23T05:35:30;3.97;;;1.60;;
38865;SDS011;62686;48.984;8.394;2022-11-23T05:37:58;8.47;;;1.90;;
38865;SDS011;62686;48.984;8.394;2022-11-23T05:40:27;5.47;;;1.77;;
38865;SDS011;62686;48.984;8.394;2022-11-23T05:42:55;4.33;;;1.63;;
38865;SDS011;62686;48.984;8.394;2022-11-23T05:45:23;3.10;;;1.67;;
38865;SDS011;62686;48.984;8.394;2022-11-23T05:47:54;5.50;;;2.07;;
38865;SDS011;62686;48.984;8.394;2022-11-23T05:50:24;7.37;;;2.30;;
38865;SDS011;62686;48.984;8.394;2022-11-23T05:52:54;2.40;;;1.50;;
38865;SDS011;62686;48.984;8.394;2022-11-23T05:55:23;6.13;;;3.20;;
38865;SDS011;62686;48.984;8.394;2022-11-23T05:57:52;11.07;;;3.43;;
38865;SDS011;62686;48.984;8.394;2022-11-23T06:00:20;10.83;;;2.70;;
38865;SDS011;62686;48.984;8.394;2022-11-23T06:02:48;6.80;;;2.50;;
38865;SDS011;62686;48.984;8.394;2022-11-23T06:05:18;6.00;;;2.40;;
38865;SDS011;62686;48.984;8.394;2022-11-23T06:07:46;7.57;;;3.83;;
38865;SDS011;62686;48.984;8.394;2022-11-23T06:10:19;9.30;;;4.10;;
38865;SDS011;62686;48.984;8.394;2022-11-23T06:12:47;8.03;;;4.37;;
38865;SDS011;62686;48.984;8.394;2022-11-23T06:15:17;7.60;;;3.40;;
38865;SDS011;62686;48.984;8.394;2022-11-23T06:17:47;8.47;;;3.53;;
38865;SDS011;62686;48.984;8.394;2022-11-23T06:20:17;5.93;;;3.40;;
38865;SDS011;62686;48.984;8.394;2022-11-23T06:22:50;12.20;;;3.80;;
38865;SDS011;62686;48.984;8.394;2022-11-23T06:25:19;10.47;;;3.60;;
38865;SDS011;62686;48.984;8.394;2022-11-23T06:27:52;10.47;;;3.43;;
38865;SDS011;62686;48.984;8.394;2022-11-23T06:30:21;5.20;;;3.10;;
38865;SDS011;62686;48.984;8.394;2022-11-23T06:32:49;6.90;;;2.97;;
38865;SDS011;62686;48.984;8.394;2022-11-23T06:35:19;6.77;;;2.57;;
38865;SDS011;62686;48.984;8.394;2022-11-23T06:37:47;7.03;;;3.30;;
38865;SDS011;62686;48.984;8.394;2022-11-23T06:40:15;4.33;;;2.20;;
38865;SDS011;62686;48.984;8.394;2022-11-23T06:42:44;7.13;;;3.00;;
38865;SDS011;62686;48.984;8.394;2022-11-23T06:45:13;9.17;;;3.20;;
38865;SDS011;62686;48.984;8.394;2022-11-23T06:47:42;8.80;;;3.00;;
38865;SDS011;62686;48.984;8.394;2022-11-23T06:50:10;8.57;;;3.23;;
38865;SDS011;62686;48.984;8.394;2022-11-23T06:52:41;7.67;;;2.63;;
38865;SDS011;62686;48.984;8.394;2022-11-23T06:55:09;7.80;;;3.10;;
38865;SDS011;62686;48.984;8.394;2022-11-23T06:57:37;8.67;;;3.13;;
38865;SDS011;62686;48.984;8.394;2022-11-23T07:00:06;8.33;;;3.33;;
38865;SDS011;62686;48.984;8.394;2022-11-23T07:02:36;7.80;;;3.50;;
38865;SDS011;62686;48.984;8.394;2022-11-23T07:05:04;5.33;;;3.03;;
38865;SDS011;62686;48.984;8.394;2022-11-23T07:07:33;6.03;;;3.17;;
38865;SDS011;62686;48.984;8.394;2022-11-23T07:10:06;8.30;;;4.27;;
38865;SDS011;62686;48.984;8.394;2022-11-23T07:12:35;11.67;;;4.60;;
38865;SDS011;62686;48.984;8.394;2022-11-23T07:15:03;9.30;;;4.10;;
38865;SDS011;62686;48.984;8.394;2022-11-23T07:17:31;7.47;;;4.87;;
38865;SDS011;62686;48.984;8.394;2022-11-23T07:20:00;6.77;;;4.80;;
38865;SDS011;62686;48.984;8.394;2022-11-23T07:22:28;11.47;;;6.17;;
38865;SDS011;62686;48.984;8.394;2022-11-23T07:24:56;8.60;;;5.83;;
38865;SDS011;62686;48.984;8.394;2022-11-23T07:27:25;12.67;;;6.53;;
38865;SDS011;62686;48.984;8.394;2022-11-23T07:29:53;9.37;;;6.07;;
38865;SDS011;62686;48.984;8.394;2022-11-23T07:32:22;12.63;;;7.40;;
38865;SDS011;62686;48.984;8.394;2022-11-23T07:34:50;12.27;;;7.50;;
38865;SDS011;62686;48.984;8.394;2022-11-23T07:37:18;15.93;;;8.40;;
38865;SDS011;62686;48.984;8.394;2022-11-23T07:39:46;11.87;;;7.37;;
38865;SDS011;62686;48.984;8.394;2022-11-23T07:42:21;12.63;;;7.03;;
38865;SDS011;62686;48.984;8.394;2022-11-23T07:45:00;10.87;;;6.67;;
38865;SDS011;62686;48.984;8.394;2022-11-23T07:47:28;13.70;;;7.63;;
38865;SDS011;62686;48.984;8.394;2022-11-23T07:49:57;13.20;;;6.77;;
38865;SDS011;62686;48.984;8.394;2022-11-23T07:52:25;11.10;;;6.27;;
38865;SDS011;62686;48.984;8.394;2022-11-23T07:54:53;10.83;;;6.67;;
38865;SDS011;62686;48.984;8.394;2022-11-23T07:57:24;14.90;;;7.20;;
38865;SDS011;62686;48.984;8.394;2022-11-23T07:59:52;11.43;;;6.90;;
38865;SDS011;62686;48.984;8.394;2022-11-23T08:02:22;12.93;;;6.70;;
38865;SDS011;62686;48.984;8.394;2022-11-23T08:04:50;11.67;;;6.40;;
38865;SDS011;62686;48.984;8.394;2022-11-23T08:07:18;13.17;;;6.70;;
38865;SDS011;62686;48.984;8.394;2022-11-23T08:09:46;12.77;;;7.90;;
38865;SDS011;62686;48.984;8.394;2022-11-23T08:12:15;10.37;;;6.63;;
38865;SDS011;62686;48.984;8.394;2022-11-23T08:14:43;11.50;;;6.90;;
38865;SDS011;62686;48.984;8.394;2022-11-23T08:17:11;12.27;;;6.70;;
38865;SDS011;62686;48.984;8.394;2022-11-23T08:19:41;10.43;;;7.00;;
38865;SDS011;62686;48.984;8.394;2022-11-23T08:22:09;9.60;;;6.10;;
38865;SDS011;62686;48.984;8.394;2022-11-23T08:24:40;14.90;;;8.13;;
38865;SDS011;62686;48.984;8.394;2022-11-23T08:27:08;9.60;;;6.43;;
38865;SDS011;62686;48.984;8.394;2022-11-23T08:29:41;12.37;;;7.03;;
38865;SDS011;62686;48.984;8.394;2022-11-23T08:32:10;15.27;;;7.30;;
38865;SDS011;62686;48.984;8.394;2022-11-23T08:34:38;9.03;;;6.57;;
38865;SDS011;62686;48.984;8.394;2022-11-23T08:37:09;16.40;;;6.63;;
38865;SDS011;62686;48.984;8.394;2022-11-23T08:39:37;11.87;;;6.00;;
38865;SDS011;62686;48.984;8.394;2022-11-23T08:42:05;10.20;;;6.03;;
38865;SDS011;62686;48.984;8.394;2022-11-23T08:44:34;12.93;;;6.37;;
38865;SDS011;62686;48.984;8.394;2022-11-23T08:47:02;10.20;;;5.97;;
38865;SDS011;62686;48.984;8.394;2022-11-23T08:49:30;11.53;;;6.30;;
38865;SDS011;62686;48.984;8.394;2022-11-23T08:51:58;9.03;;;5.83;;
38865;SDS011;62686;48.984;8.394;2022-11-23T08:54:27;9.90;;;5.33;;
38865;SDS011;62686;48.984;8.394;2022-11-23T08:56:56;9.47;;;5.03;;
38865;SDS011;62686;48.984;8.394;2022-11-23T08:59:24;12.23;;;5.23;;
38865;SDS011;62686;48.984;8.394;2022-11-23T09:01:52;13.77;;;5.27;;
38865;SDS011;62686;48.984;8.394;2022-11-23T09:04:20;9.57;;;4.93;;
38865;SDS011;62686;48.984;8.394;2022-11-23T09:06:52;16.43;;;5.40;;
38865;SDS011;62686;48.984;8.394;2022-11-23T09:09:21;7.53;;;3.90;;
38865;SDS011;62686;48.984;8.394;2022-11-23T09:11:50;11.13;;;3.80;;
38865;SDS011;62686;48.984;8.394;2022-11-23T09:14:19;12.70;;;4.17;;
38865;SDS011;62686;48.984;8.394;2022-11-23T09:16:47;13.87;;;3.37;;
38865;SDS011;62686;48.984;8.394;2022-11-23T09:19:16;13.40;;;4.63;;
38865;SDS011;62686;48.984;8.394;2022-11-23T09:21:44;8.33;;;4.00;;
38865;SDS011;62686;48.984;8.394;2022-11-23T09:24:12;8.67;;;3.73;;
38865;SDS011;62686;48.984;8.394;2022-11-23T09:26:40;10.33;;;3.87;;
38865;SDS011;62686;48.984;8.394;2022-11-23T09:29:10;11.33;;;3.97;;
38865;SDS011;62686;48.984;8.394;2022-11-23T09:31:38;7.90;;;3.30;;
38865;SDS011;62686;48.984;8.394;2022-11-23T09:34:09;15.03;;;3.33;;
38865;SDS011;62686;48.984;8.394;2022-11-23T09:36:39;14.33;;;3.40;;
38865;SDS011;62686;48.984;8.394;2022-11-23T09:39:07;8.73;;;2.70;;
38865;SDS011;62686;48.984;8.394;2022-11-23T09:41:42;9.57;;;3.00;;
38865;SDS011;62686;48.984;8.394;2022-11-23T09:44:31;14.27;;;3.20;;
38865;SDS011;62686;48.984;8.394;2022-11-23T09:47:13;11.33;;;2.27;;
38865;SDS011;62686;48.984;8.394;2022-11-23T09:49:52;9.20;;;2.33;;
38865;SDS011;62686;48.984;8.394;2022-11-23T09:52:28;6.70;;;2.30;;
38865;SDS011;62686;48.984;8.394;2022-11-23T09:54:58;7.60;;;2.20;;
38865;SDS011;62686;48.984;8.394;2022-11-23T09:57:32;5.60;;;2.10;;
38865;SDS011;62686;48.984;8.394;2022-11-23T10:00:04;9.33;;;2.60;;
38865;SDS011;62686;48.984;8.394;2022-11-23T10:02:35;6.97;;;2.10;;
38865;SDS011;62686;48.984;8.394;2022-11-23T10:05:06;10.53;;;2.47;;
38865;SDS011;62686;48.984;8.394;2022-11-23T10:07:45;7.00;;;1.90;;
38865;SDS011;62686;48.984;8.394;2022-11-23T10:10:28;6.90;;;2.07;;
38865;SDS011;62686;48.984;8.394;2022-11-23T10:13:09;5.20;;;2.10;;
38865;SDS011;62686;48.984;8.394;2022-11-23T10:15:54;5.03;;;2.10;;
38865;SDS011;62686;48.984;8.394;2022-11-23T10:18:34;7.03;;;1.80;;
38865;SDS011;62686;48.984;8.394;2022-11-23T10:21:12;6.83;;;2.40;;
38865;SDS011;62686;48.984;8.394;2022-11-23T10:23:50;9.53;;;1.80;;
38865;SDS011;62686;48.984;8.394;2022-11-23T10:26:21;5.10;;;1.40;;
38865;SDS011;62686;48.984;8.394;2022-11-23T10:28:54;6.30;;;1.80;;
38865;SDS011;62686;48.984;8.394;2022-11-23T10:31:27;4.47;;;1.73;;
38865;SDS011;62686;48.984;8.394;2022-11-23T10:33:57;9.83;;;1.87;;
38865;SDS011;62686;48.984;8.394;2022-11-23T10:36:33;10.20;;;2.00;;
38865;SDS011;62686;48.984;8.394;2022-11-23T10:39:04;8.80;;;1.63;;
38865;SDS011;62686;48.984;8.394;2022-11-23T10:41:42;6.27;;;1.63;;
38865;SDS011;62686;48.984;8.394;2022-11-23T10:44:16;4.23;;;1.50;;
38865;SDS011;62686;48.984;8.394;2022-11-23T10:46:52;2.83;;;1.17;;
38865;SDS011;62686;48.984;8.394;2022-11-23T10:49:21;4.20;;;1.50;;
38865;SDS011;62686;48.984;8.394;2022-11-23T10:51:52;5.37;;;1.50;;
38865;SDS011;62686;48.984;8.394;2022-11-23T10:54:23;4.27;;;1.40;;
38865;SDS011;62686;48.984;8.394;2022-11-23T10:56:54;5.57;;;1.73;;
38865;SDS011;62686;48.984;8.394;2022-11-23T10:59:27;5.07;;;1.30;;
38865;SDS011;62686;48.984;8.394;2022-11-23T11:02:00;3.95;;;1.00;;
38865;SDS011;62686;48.984;8.394;2022-11-23T11:04:37;8.07;;;1.60;;
38865;SDS011;62686;48.984;8.394;2022-11-23T11:07:09;5.53;;;1.42;;
38865;SDS011;62686;48.984;8.394;2022-11-23T11:09:47;3.25;;;1.48;;
38865;SDS011;62686;48.984;8.394;2022-11-23T11:12:17;2.83;;;1.10;;
38865;SDS011;62686;48.984;8.394;2022-11-23T11:14:54;3.28;;;1.27;;
38865;SDS011;62686;48.984;8.394;2022-11-23T11:17:26;3.75;;;1.23;;
38865;SDS011;62686;48.984;8.394;2022-11-23T11:19:56;4.70;;;1.40;;
38865;SDS011;62686;48.984;8.394;2022-11-23T11:22:26;3.03;;;1.30;;
38865;SDS011;62686;48.984;8.394;2022-11-23T11:25:06;6.15;;;1.38;;
38865;SDS011;62686;48.984;8.394;2022-11-23T11:27:52;3.17;;;1.15;;
38865;SDS011;62686;48.984;8.394;2022-11-23T11:30:21;4.18;;;1.73;;
38865;SDS011;62686;48.984;8.394;2022-11-23T11:32:54;2.70;;;1.38;;
38865;SDS011;62686;48.984;8.394;2022-11-23T11:35:31;3.08;;;1.48;;
38865;SDS011;62686;48.984;8.394;2022-11-23T11:38:04;7.20;;;1.40;;
38865;SDS011;62686;48.984;8.394;2022-11-23T11:40:42;5.13;;;1.52;;
38865;SDS011;62686;48.984;8.394;2022-11-23T11:43:14;4.28;;;1.35;;
38865;SDS011;62686;48.984;8.394;2022-11-23T11:45:47;3.45;;;1.30;;
38865;SDS011;62686;48.984;8.394;2022-11-23T11:48:40;3.92;;;1.55;;
38865;SDS011;62686;48.984;8.394;2022-11-23T11:51:12;3.00;;;1.35;;
38865;SDS011;62686;48.984;8.394;2022-11-23T11:53:48;4.57;;;1.40;;
38865;SDS011;62686;48.984;8.394;2022-11-23T11:56:21;4.38;;;1.42;;
38865;SDS011;62686;48.984;8.394;2022-11-23T11:58:54;3.33;;;1.23;;
38865;SDS011;62686;48.984;8.394;2022-11-23T12:01:28;3.17;;;1.45;;
38865;SDS011;62686;48.984;8.394;2022-11-23T12:04:05;3.13;;;1.63;;
38865;SDS011;62686;48.984;8.394;2022-11-23T12:06:40;4.55;;;1.60;;
38865;SDS011;62686;48.984;8.394;2022-11-23T12:09:15;5.38;;;1.60;;
38865;SDS011;62686;48.984;8.394;2022-11-23T12:11:46;4.60;;;1.30;;
38865;SDS011;62686;48.984;8.394;2022-11-23T12:14:15;4.05;;;1.60;;
38865;SDS011;62686;48.984;8.394;2022-11-23T12:16:46;2.45;;;1.30;;
38865;SDS011;62686;48.984;8.394;2022-11-23T12:19:32;2.53;;;1.05;;
38865;SDS011;62686;48.984;8.394;2022-11-23T12:25:05;4.38;;;1.40;;
38865;SDS011;62686;48.984;8.394;2022-11-23T12:27:44;5.93;;;1.50;;
38865;SDS011;62686;48.984;8.394;2022-11-23T12:30:21;7.63;;;1.88;;
38865;SDS011;62686;48.984;8.394;2022-11-23T12:32:58;7.00;;;1.65;;
38865;SDS011;62686;48.984;8.394;2022-11-23T12:35:50;5.57;;;1.63;;
38865;SDS011;62686;48.984;8.394;2022-11-23T12:38:29;5.30;;;1.63;;
38865;SDS011;62686;48.984;8.394;2022-11-23T12:41:13;4.83;;;1.57;;
38865;SDS011;62686;48.984;8.394;2022-11-23T12:44:02;5.53;;;1.60;;
38865;SDS011;62686;48.984;8.394;2022-11-23T12:46:49;10.57;;;1.70;;
38865;SDS011;62686;48.984;8.394;2022-11-23T12:49:26;5.13;;;1.37;;
38865;SDS011;62686;48.984;8.394;2022-11-23T12:52:06;6.50;;;1.90;;
38865;SDS011;62686;48.984;8.394;2022-11-23T12:54:52;5.67;;;1.70;;
38865;SDS011;62686;48.984;8.394;2022-11-23T12:57:26;4.60;;;1.43;;
38865;SDS011;62686;48.984;8.394;2022-11-23T12:59:59;6.23;;;1.60;;
38865;SDS011;62686;48.984;8.394;2022-11-23T13:02:41;5.20;;;1.60;;
38865;SDS011;62686;48.984;8.394;2022-11-23T13:05:32;4.60;;;1.50;;
38865;SDS011;62686;48.984;8.394;2022-11-23T13:08:33;6.70;;;1.47;;
38865;SDS011;62686;48.984;8.394;2022-11-23T13:11:25;6.60;;;1.63;;
38865;SDS011;62686;48.984;8.394;2022-11-23T13:14:05;6.90;;;1.57;;
38865;SDS011;62686;48.984;8.394;2022-11-23T13:16:55;6.63;;;1.77;;
38865;SDS011;62686;48.984;8.394;2022-11-23T13:19:33;3.57;;;1.70;;
38865;SDS011;62686;48.984;8.394;2022-11-23T13:22:20;4.90;;;1.53;;
38865;SDS011;62686;48.984;8.394;2022-11-23T13:25:01;4.97;;;1.33;;
38865;SDS011;62686;48.984;8.394;2022-11-23T13:27:56;4.90;;;1.60;;
38865;SDS011;62686;48.984;8.394;2022-11-23T13:30:27;3.97;;;1.30;;
38865;SDS011;62686;48.984;8.394;2022-11-23T13:33:24;5.43;;;1.70;;
38865;SDS011;62686;48.984;8.394;2022-11-23T13:35:57;3.33;;;1.20;;
38865;SDS011;62686;48.984;8.394;2022-11-23T13:38:37;4.27;;;1.20;;
38865;SDS011;62686;48.984;8.394;2022-11-23T13:44:20;5.17;;;1.47;;
38865;SDS011;62686;48.984;8.394;2022-11-23T13:47:03;6.00;;;1.60;;
38865;SDS011;62686;48.984;8.394;2022-11-23T13:49:36;3.10;;;1.47;;
38865;SDS011;62686;48.984;8.394;2022-11-23T13:52:21;3.50;;;1.40;;
38865;SDS011;62686;48.984;8.394;2022-11-23T13:55:16;4.40;;;2.20;;
38865;SDS011;62686;48.984;8.394;2022-11-23T14:00:49;3.67;;;1.40;;
38865;SDS011;62686;48.984;8.394;2022-11-23T14:06:36;3.73;;;1.23;;
38865;SDS011;62686;48.984;8.394;2022-11-23T14:09:15;3.90;;;1.43;;
38865;SDS011;62686;48.984;8.394;2022-11-23T14:11:56;3.17;;;1.23;;
38865;SDS011;62686;48.984;8.394;2022-11-23T14:14:42;4.03;;;1.33;;
38865;SDS011;62686;48.984;8.394;2022-11-23T14:17:33;4.60;;;1.40;;
38865;SDS011;62686;48.984;8.394;2022-11-23T14:20:30;4.20;;;1.30;;
38865;SDS011;62686;48.984;8.394;2022-11-23T14:23:19;5.32;;;1.40;;
38865;SDS011;62686;48.984;8.394;2022-11-23T14:26:12;2.23;;;1.07;;
38865;SDS011;62686;48.984;8.394;2022-11-23T14:28:52;2.30;;;1.07;;
38865;SDS011;62686;48.984;8.394;2022-11-23T14:31:33;1.92;;;1.00;;
38865;SDS011;62686;48.984;8.394;2022-11-23T14:34:13;1.80;;;1.10;;
38865;SDS011;62686;48.984;8.394;2022-11-23T14:36:52;2.77;;;1.23;;
38865;SDS011;62686;48.984;8.394;2022-11-23T14:39:39;4.10;;;1.10;;
38865;SDS011;62686;48.984;8.394;2022-11-23T14:42:26;1.87;;;0.97;;
38865;SDS011;62686;48.984;8.394;2022-11-23T14:44:57;4.70;;;2.97;;
38865;SDS011;62686;48.984;8.394;2022-11-23T14:47:32;2.97;;;1.93;;
38865;SDS011;62686;48.984;8.394;2022-11-23T14:50:01;1.60;;;1.20;;
38865;SDS011;62686;48.984;8.394;2022-11-23T14:52:32;3.07;;;1.20;;
38865;SDS011;62686;48.984;8.394;2022-11-23T14:55:04;2.80;;;1.00;;
38865;SDS011;62686;48.984;8.394;2022-11-23T14:57:35;2.30;;;1.27;;
38865;SDS011;62686;48.984;8.394;2022-11-23T15:00:20;2.00;;;1.30;;
38865;SDS011;62686;48.984;8.394;2022-11-23T15:02:52;2.90;;;1.30;;
38865;SDS011;62686;48.984;8.394;2022-11-23T15:05:26;1.40;;;1.00;;
38865;SDS011;62686;48.984;8.394;2022-11-23T15:07:59;4.03;;;1.10;;
38865;SDS011;62686;48.984;8.394;2022-11-23T15:10:33;2.73;;;1.20;;
38865;SDS011;62686;48.984;8.394;2022-11-23T15:13:15;2.63;;;1.33;;
38865;SDS011;62686;48.984;8.394;2022-11-23T15:15:46;4.40;;;1.50;;
38865;SDS011;62686;48.984;8.394;2022-11-23T15:18:27;3.87;;;1.23;;
38865;SDS011;62686;48.984;8.394;2022-11-23T15:20:59;2.80;;;1.50;;
38865;SDS011;62686;48.984;8.394;2022-11-23T15:23:32;3.77;;;1.67;;
38865;SDS011;62686;48.984;8.394;2022-11-23T15:26:03;5.07;;;1.60;;
38865;SDS011;62686;48.984;8.394;2022-11-23T15:28:34;4.47;;;1.47;;
38865;SDS011;62686;48.984;8.394;2022-11-23T15:31:16;5.17;;;1.70;;